This is the latest recevied weather packets stored in our database for station/object EA4URC-13. If no packets are shown the sender has not sent any weather packets the latest 10 day(s).
| Time | Temp. | Humidity | Pressure | Rain* | Wind** | Luminosity | Snow |
|---|---|---|---|---|---|---|---|
| 1777868924 | 12.22° C | 67% | 1004.6 hPa | - | - | - | - |
| 1777868024 | 12.22° C | 67% | 1004.6 hPa | - | - | - | - |
| 1777867167 | 13.89° C | 62% | 1003.9 hPa | - | - | - | - |
| 1777867124 | 13.89° C | 62% | 1003.9 hPa | - | - | - | - |
| 1777866224 | 12.22° C | 66% | 1004.6 hPa | - | - | - | - |
| 1777865324 | 12.22° C | 65% | 1004.7 hPa | - | - | - | - |
| 1777864424 | 13.33° C | 64% | 1004.4 hPa | - | - | - | - |
| 1777863524 | 12.22° C | 67% | 1005 hPa | - | - | - | - |
| 1777862624 | 13.33° C | 63% | 1004.4 hPa | - | - | - | - |
| 1777861724 | 13.33° C | 64% | 1004.5 hPa | - | - | - | - |
| 1777860824 | 12.78° C | 66% | 1004.9 hPa | - | - | - | - |
| 1777859924 | 12.78° C | 67% | 1005 hPa | - | - | - | - |
| 1777859024 | 12.22° C | 67% | 1005.2 hPa | - | - | - | - |
| 1777858124 | 12.22° C | 68% | 1005.5 hPa | - | - | - | - |
| 1777857224 | 11.67° C | 70% | 1005.6 hPa | - | - | - | - |
| 1777856361 | 12.22° C | 69% | 1005.3 hPa | - | - | - | - |
| 1777856324 | 12.22° C | 69% | 1005.3 hPa | - | - | - | - |
| 1777855424 | 12.22° C | 68% | 1005.5 hPa | - | - | - | - |
| 1777854524 | 10.56° C | 73% | 1006.2 hPa | - | - | - | - |
| 1777853624 | 12.22° C | 69% | 1005.6 hPa | - | - | - | - |
| 1777852724 | 12.22° C | 68% | 1005.9 hPa | - | - | - | - |
| 1777851824 | 11.67° C | 69% | 1006 hPa | - | - | - | - |
| 1777850924 | 12.78° C | 66% | 1005.7 hPa | - | - | - | - |
| 1777850024 | 12.78° C | 66% | 1005.8 hPa | - | - | - | - |
| 1777849124 | 13.89° C | 63% | 1005.5 hPa | - | - | - | - |
* Rain since midnight (hover to see other rain measurements)
** Current wind speed in m/s (hover to see current wind gust speed)